sensor_id;sensor_type;location;lat;lon;timestamp;P1;durP1;ratioP1;P2;durP2;ratioP2
29030;SDS011;16122;50.236;11.734;2022-08-03T00:01:34;3.03;;;2.83;;
29030;SDS011;16122;50.236;11.734;2022-08-03T00:04:02;2.67;;;2.50;;
29030;SDS011;16122;50.236;11.734;2022-08-03T00:06:28;3.40;;;3.10;;
29030;SDS011;16122;50.236;11.734;2022-08-03T00:08:54;2.80;;;2.70;;
29030;SDS011;16122;50.236;11.734;2022-08-03T00:11:20;3.93;;;3.40;;
29030;SDS011;16122;50.236;11.734;2022-08-03T00:13:46;2.93;;;2.73;;
29030;SDS011;16122;50.236;11.734;2022-08-03T00:16:12;3.07;;;2.67;;
29030;SDS011;16122;50.236;11.734;2022-08-03T00:18:39;2.70;;;2.50;;
29030;SDS011;16122;50.236;11.734;2022-08-03T00:21:05;3.47;;;3.17;;
29030;SDS011;16122;50.236;11.734;2022-08-03T00:23:31;30.73;;;3.47;;
29030;SDS011;16122;50.236;11.734;2022-08-03T00:25:58;5.03;;;3.30;;
29030;SDS011;16122;50.236;11.734;2022-08-03T00:28:24;3.63;;;3.30;;
29030;SDS011;16122;50.236;11.734;2022-08-03T00:30:50;3.50;;;3.20;;
29030;SDS011;16122;50.236;11.734;2022-08-03T00:33:16;4.73;;;2.70;;
29030;SDS011;16122;50.236;11.734;2022-08-03T00:35:42;3.43;;;3.03;;
29030;SDS011;16122;50.236;11.734;2022-08-03T00:38:08;3.60;;;3.27;;
29030;SDS011;16122;50.236;11.734;2022-08-03T00:40:34;3.60;;;3.30;;
29030;SDS011;16122;50.236;11.734;2022-08-03T00:43:01;3.57;;;3.30;;
29030;SDS011;16122;50.236;11.734;2022-08-03T00:45:30;3.40;;;3.20;;
29030;SDS011;16122;50.236;11.734;2022-08-03T00:48:00;3.90;;;2.63;;
29030;SDS011;16122;50.236;11.734;2022-08-03T00:50:27;3.10;;;2.90;;
29030;SDS011;16122;50.236;11.734;2022-08-03T00:52:56;3.00;;;2.80;;
29030;SDS011;16122;50.236;11.734;2022-08-03T00:55:23;3.47;;;3.17;;
29030;SDS011;16122;50.236;11.734;2022-08-03T00:57:50;6.40;;;3.40;;
29030;SDS011;16122;50.236;11.734;2022-08-03T01:00:18;3.97;;;3.17;;
29030;SDS011;16122;50.236;11.734;2022-08-03T01:02:46;3.13;;;2.93;;
29030;SDS011;16122;50.236;11.734;2022-08-03T01:05:12;3.37;;;3.17;;
29030;SDS011;16122;50.236;11.734;2022-08-03T01:07:54;3.77;;;3.47;;
29030;SDS011;16122;50.236;11.734;2022-08-03T01:12:58;3.17;;;2.97;;
29030;SDS011;16122;50.236;11.734;2022-08-03T01:18:27;3.73;;;3.43;;
29030;SDS011;16122;50.236;11.734;2022-08-03T01:21:12;3.43;;;3.13;;
29030;SDS011;16122;50.236;11.734;2022-08-03T01:23:49;3.37;;;3.07;;
29030;SDS011;16122;50.236;11.734;2022-08-03T01:29:20;3.30;;;3.00;;
29030;SDS011;16122;50.236;11.734;2022-08-03T01:32:01;3.80;;;3.50;;
29030;SDS011;16122;50.236;11.734;2022-08-03T01:34:33;3.77;;;3.50;;
29030;SDS011;16122;50.236;11.734;2022-08-03T01:37:10;3.87;;;3.37;;
29030;SDS011;16122;50.236;11.734;2022-08-03T01:39:40;3.80;;;3.40;;
29030;SDS011;16122;50.236;11.734;2022-08-03T01:42:09;3.00;;;2.80;;
29030;SDS011;16122;50.236;11.734;2022-08-03T01:44:39;3.63;;;3.33;;
29030;SDS011;16122;50.236;11.734;2022-08-03T01:47:06;3.70;;;3.40;;
29030;SDS011;16122;50.236;11.734;2022-08-03T01:49:36;3.40;;;3.10;;
29030;SDS011;16122;50.236;11.734;2022-08-03T01:52:05;2.97;;;2.77;;
29030;SDS011;16122;50.236;11.734;2022-08-03T01:54:34;4.33;;;3.40;;
29030;SDS011;16122;50.236;11.734;2022-08-03T01:57:02;3.40;;;3.20;;
29030;SDS011;16122;50.236;11.734;2022-08-03T01:59:28;3.47;;;3.27;;
29030;SDS011;16122;50.236;11.734;2022-08-03T02:01:56;3.43;;;3.13;;
29030;SDS011;16122;50.236;11.734;2022-08-03T02:04:24;4.00;;;3.33;;
29030;SDS011;16122;50.236;11.734;2022-08-03T02:06:52;3.87;;;3.57;;
29030;SDS011;16122;50.236;11.734;2022-08-03T02:09:20;5.33;;;3.40;;
29030;SDS011;16122;50.236;11.734;2022-08-03T02:11:47;4.83;;;3.17;;
29030;SDS011;16122;50.236;11.734;2022-08-03T02:14:15;2.97;;;2.77;;
29030;SDS011;16122;50.236;11.734;2022-08-03T02:16:44;3.90;;;3.13;;
29030;SDS011;16122;50.236;11.734;2022-08-03T02:19:10;4.13;;;3.77;;
29030;SDS011;16122;50.236;11.734;2022-08-03T02:21:37;4.47;;;3.60;;
29030;SDS011;16122;50.236;11.734;2022-08-03T02:24:03;3.37;;;2.70;;
29030;SDS011;16122;50.236;11.734;2022-08-03T02:26:30;3.73;;;3.43;;
29030;SDS011;16122;50.236;11.734;2022-08-03T02:29:01;3.17;;;2.97;;
29030;SDS011;16122;50.236;11.734;2022-08-03T02:31:39;4.37;;;3.40;;
29030;SDS011;16122;50.236;11.734;2022-08-03T02:34:08;3.53;;;3.23;;
29030;SDS011;16122;50.236;11.734;2022-08-03T02:36:38;3.47;;;3.17;;
29030;SDS011;16122;50.236;11.734;2022-08-03T02:39:08;3.53;;;3.33;;
29030;SDS011;16122;50.236;11.734;2022-08-03T02:41:40;3.47;;;3.13;;
29030;SDS011;16122;50.236;11.734;2022-08-03T02:44:09;3.50;;;3.20;;
29030;SDS011;16122;50.236;11.734;2022-08-03T02:46:38;3.67;;;3.37;;
29030;SDS011;16122;50.236;11.734;2022-08-03T02:49:09;3.97;;;3.67;;
29030;SDS011;16122;50.236;11.734;2022-08-03T02:51:38;4.03;;;3.73;;
29030;SDS011;16122;50.236;11.734;2022-08-03T02:54:05;3.80;;;3.50;;
29030;SDS011;16122;50.236;11.734;2022-08-03T02:56:33;3.33;;;2.90;;
29030;SDS011;16122;50.236;11.734;2022-08-03T02:59:00;3.47;;;3.17;;
29030;SDS011;16122;50.236;11.734;2022-08-03T03:01:27;3.57;;;3.27;;
29030;SDS011;16122;50.236;11.734;2022-08-03T03:03:55;4.83;;;3.57;;
29030;SDS011;16122;50.236;11.734;2022-08-03T03:06:22;3.80;;;3.50;;
29030;SDS011;16122;50.236;11.734;2022-08-03T03:08:51;3.80;;;3.47;;
29030;SDS011;16122;50.236;11.734;2022-08-03T03:11:18;4.07;;;3.77;;
29030;SDS011;16122;50.236;11.734;2022-08-03T03:13:46;3.90;;;3.60;;
29030;SDS011;16122;50.236;11.734;2022-08-03T03:16:13;3.63;;;3.33;;
29030;SDS011;16122;50.236;11.734;2022-08-03T03:18:40;4.00;;;3.67;;
29030;SDS011;16122;50.236;11.734;2022-08-03T03:21:09;3.90;;;3.60;;
29030;SDS011;16122;50.236;11.734;2022-08-03T03:23:37;3.70;;;3.10;;
29030;SDS011;16122;50.236;11.734;2022-08-03T03:26:05;3.87;;;3.57;;
29030;SDS011;16122;50.236;11.734;2022-08-03T03:28:31;3.37;;;3.07;;
29030;SDS011;16122;50.236;11.734;2022-08-03T03:30:58;3.70;;;3.40;;
29030;SDS011;16122;50.236;11.734;2022-08-03T03:33:25;3.90;;;3.60;;
29030;SDS011;16122;50.236;11.734;2022-08-03T03:35:51;3.60;;;3.30;;
29030;SDS011;16122;50.236;11.734;2022-08-03T03:38:18;3.57;;;3.27;;
29030;SDS011;16122;50.236;11.734;2022-08-03T03:40:44;3.53;;;3.33;;
29030;SDS011;16122;50.236;11.734;2022-08-03T03:43:10;4.00;;;3.70;;
29030;SDS011;16122;50.236;11.734;2022-08-03T03:45:37;3.37;;;3.17;;
29030;SDS011;16122;50.236;11.734;2022-08-03T03:48:05;3.60;;;3.30;;
29030;SDS011;16122;50.236;11.734;2022-08-03T03:50:33;3.80;;;3.50;;
29030;SDS011;16122;50.236;11.734;2022-08-03T03:53:03;5.33;;;4.17;;
29030;SDS011;16122;50.236;11.734;2022-08-03T03:55:29;4.07;;;3.67;;
29030;SDS011;16122;50.236;11.734;2022-08-03T03:57:55;4.03;;;3.73;;
29030;SDS011;16122;50.236;11.734;2022-08-03T04:00:21;5.00;;;3.53;;
29030;SDS011;16122;50.236;11.734;2022-08-03T04:02:47;5.83;;;3.70;;
29030;SDS011;16122;50.236;11.734;2022-08-03T04:05:13;3.47;;;3.10;;
29030;SDS011;16122;50.236;11.734;2022-08-03T04:08:17;3.57;;;3.27;;
29030;SDS011;16122;50.236;11.734;2022-08-03T04:11:04;4.77;;;3.47;;
29030;SDS011;16122;50.236;11.734;2022-08-03T04:13:39;4.27;;;3.87;;
29030;SDS011;16122;50.236;11.734;2022-08-03T04:16:08;4.00;;;3.70;;
29030;SDS011;16122;50.236;11.734;2022-08-03T04:18:37;7.10;;;4.87;;
29030;SDS011;16122;50.236;11.734;2022-08-03T04:21:07;10.93;;;4.23;;
29030;SDS011;16122;50.236;11.734;2022-08-03T04:23:42;8.60;;;5.13;;
29030;SDS011;16122;50.236;11.734;2022-08-03T04:26:11;8.17;;;4.13;;
29030;SDS011;16122;50.236;11.734;2022-08-03T04:28:40;4.93;;;4.53;;
29030;SDS011;16122;50.236;11.734;2022-08-03T04:31:10;5.10;;;4.10;;
29030;SDS011;16122;50.236;11.734;2022-08-03T04:33:38;4.60;;;3.50;;
29030;SDS011;16122;50.236;11.734;2022-08-03T04:36:06;6.73;;;4.10;;
29030;SDS011;16122;50.236;11.734;2022-08-03T04:38:37;4.53;;;4.13;;
29030;SDS011;16122;50.236;11.734;2022-08-03T04:41:07;6.57;;;4.67;;
29030;SDS011;16122;50.236;11.734;2022-08-03T04:43:33;4.77;;;4.23;;
29030;SDS011;16122;50.236;11.734;2022-08-03T04:46:03;7.23;;;4.00;;
29030;SDS011;16122;50.236;11.734;2022-08-03T04:48:31;4.63;;;4.23;;
29030;SDS011;16122;50.236;11.734;2022-08-03T04:50:58;6.43;;;4.43;;
29030;SDS011;16122;50.236;11.734;2022-08-03T04:53:25;5.10;;;4.70;;
29030;SDS011;16122;50.236;11.734;2022-08-03T04:55:50;5.10;;;4.50;;
29030;SDS011;16122;50.236;11.734;2022-08-03T04:58:16;5.37;;;4.30;;
29030;SDS011;16122;50.236;11.734;2022-08-03T05:00:42;5.03;;;4.63;;
29030;SDS011;16122;50.236;11.734;2022-08-03T05:03:09;6.13;;;4.83;;
29030;SDS011;16122;50.236;11.734;2022-08-03T05:05:35;4.70;;;4.20;;
29030;SDS011;16122;50.236;11.734;2022-08-03T05:08:01;3.90;;;3.60;;
29030;SDS011;16122;50.236;11.734;2022-08-03T05:10:27;5.27;;;4.73;;
29030;SDS011;16122;50.236;11.734;2022-08-03T05:12:53;5.00;;;4.63;;
29030;SDS011;16122;50.236;11.734;2022-08-03T05:15:18;5.20;;;4.70;;
29030;SDS011;16122;50.236;11.734;2022-08-03T05:17:45;4.67;;;4.27;;
29030;SDS011;16122;50.236;11.734;2022-08-03T05:20:11;4.93;;;4.33;;
29030;SDS011;16122;50.236;11.734;2022-08-03T05:22:37;5.47;;;4.13;;
29030;SDS011;16122;50.236;11.734;2022-08-03T05:25:03;6.73;;;5.37;;
29030;SDS011;16122;50.236;11.734;2022-08-03T05:27:29;6.70;;;4.53;;
29030;SDS011;16122;50.236;11.734;2022-08-03T05:29:55;5.03;;;4.63;;
29030;SDS011;16122;50.236;11.734;2022-08-03T05:32:21;5.60;;;5.10;;
29030;SDS011;16122;50.236;11.734;2022-08-03T05:34:47;5.23;;;4.80;;
29030;SDS011;16122;50.236;11.734;2022-08-03T05:37:13;6.03;;;5.43;;
29030;SDS011;16122;50.236;11.734;2022-08-03T05:39:39;5.50;;;4.60;;
29030;SDS011;16122;50.236;11.734;2022-08-03T05:42:04;6.33;;;5.03;;
29030;SDS011;16122;50.236;11.734;2022-08-03T05:44:30;5.10;;;4.60;;
29030;SDS011;16122;50.236;11.734;2022-08-03T05:46:56;4.63;;;4.13;;
29030;SDS011;16122;50.236;11.734;2022-08-03T05:49:23;5.30;;;4.30;;
29030;SDS011;16122;50.236;11.734;2022-08-03T05:51:49;5.83;;;4.70;;
29030;SDS011;16122;50.236;11.734;2022-08-03T05:54:15;5.50;;;4.93;;
29030;SDS011;16122;50.236;11.734;2022-08-03T05:56:41;6.10;;;5.20;;
29030;SDS011;16122;50.236;11.734;2022-08-03T05:59:07;5.67;;;5.17;;
29030;SDS011;16122;50.236;11.734;2022-08-03T06:01:33;5.20;;;4.80;;
29030;SDS011;16122;50.236;11.734;2022-08-03T06:03:59;8.07;;;4.60;;
29030;SDS011;16122;50.236;11.734;2022-08-03T06:06:25;5.23;;;4.70;;
29030;SDS011;16122;50.236;11.734;2022-08-03T06:08:51;5.73;;;4.93;;
29030;SDS011;16122;50.236;11.734;2022-08-03T06:11:18;5.30;;;4.80;;
29030;SDS011;16122;50.236;11.734;2022-08-03T06:13:45;5.53;;;4.80;;
29030;SDS011;16122;50.236;11.734;2022-08-03T06:16:11;5.93;;;5.40;;
29030;SDS011;16122;50.236;11.734;2022-08-03T06:18:37;6.03;;;5.37;;
29030;SDS011;16122;50.236;11.734;2022-08-03T06:21:04;6.03;;;5.43;;
29030;SDS011;16122;50.236;11.734;2022-08-03T06:23:30;5.33;;;4.83;;
29030;SDS011;16122;50.236;11.734;2022-08-03T06:25:56;4.93;;;4.53;;
29030;SDS011;16122;50.236;11.734;2022-08-03T06:28:22;4.63;;;4.30;;
29030;SDS011;16122;50.236;11.734;2022-08-03T06:30:48;5.20;;;4.80;;
29030;SDS011;16122;50.236;11.734;2022-08-03T06:33:15;4.67;;;4.27;;
29030;SDS011;16122;50.236;11.734;2022-08-03T06:35:41;5.20;;;4.80;;
29030;SDS011;16122;50.236;11.734;2022-08-03T06:38:07;5.83;;;3.70;;
29030;SDS011;16122;50.236;11.734;2022-08-03T06:40:34;4.53;;;4.13;;
29030;SDS011;16122;50.236;11.734;2022-08-03T06:43:04;4.07;;;3.70;;
29030;SDS011;16122;50.236;11.734;2022-08-03T06:45:31;5.90;;;4.03;;
29030;SDS011;16122;50.236;11.734;2022-08-03T06:50:27;7.80;;;4.47;;
29030;SDS011;16122;50.236;11.734;2022-08-03T06:52:53;4.17;;;3.87;;
29030;SDS011;16122;50.236;11.734;2022-08-03T06:55:19;5.40;;;3.80;;
29030;SDS011;16122;50.236;11.734;2022-08-03T06:57:46;3.47;;;3.17;;
29030;SDS011;16122;50.236;11.734;2022-08-03T07:00:12;3.90;;;3.60;;
29030;SDS011;16122;50.236;11.734;2022-08-03T07:02:39;3.50;;;3.20;;
29030;SDS011;16122;50.236;11.734;2022-08-03T07:05:05;4.30;;;3.90;;
29030;SDS011;16122;50.236;11.734;2022-08-03T07:07:32;3.67;;;3.37;;
29030;SDS011;16122;50.236;11.734;2022-08-03T07:09:57;3.27;;;2.97;;
29030;SDS011;16122;50.236;11.734;2022-08-03T07:12:24;4.00;;;3.40;;
29030;SDS011;16122;50.236;11.734;2022-08-03T07:14:51;3.20;;;2.90;;
29030;SDS011;16122;50.236;11.734;2022-08-03T07:17:17;5.27;;;3.30;;
29030;SDS011;16122;50.236;11.734;2022-08-03T07:19:43;5.30;;;3.00;;
29030;SDS011;16122;50.236;11.734;2022-08-03T07:22:09;3.60;;;3.30;;
29030;SDS011;16122;50.236;11.734;2022-08-03T07:24:35;3.90;;;3.50;;
29030;SDS011;16122;50.236;11.734;2022-08-03T07:27:02;3.30;;;3.00;;
29030;SDS011;16122;50.236;11.734;2022-08-03T07:29:28;8.23;;;3.20;;
29030;SDS011;16122;50.236;11.734;2022-08-03T07:31:54;4.70;;;3.20;;
29030;SDS011;16122;50.236;11.734;2022-08-03T07:34:20;3.20;;;3.00;;
29030;SDS011;16122;50.236;11.734;2022-08-03T07:36:46;3.47;;;3.20;;
29030;SDS011;16122;50.236;11.734;2022-08-03T07:39:11;3.17;;;2.97;;
29030;SDS011;16122;50.236;11.734;2022-08-03T07:41:37;3.67;;;3.37;;
29030;SDS011;16122;50.236;11.734;2022-08-03T07:44:03;3.80;;;3.00;;
29030;SDS011;16122;50.236;11.734;2022-08-03T07:46:29;8.23;;;3.50;;
29030;SDS011;16122;50.236;11.734;2022-08-03T07:48:55;4.60;;;3.33;;
29030;SDS011;16122;50.236;11.734;2022-08-03T07:51:21;5.83;;;2.77;;
29030;SDS011;16122;50.236;11.734;2022-08-03T07:53:47;3.33;;;3.03;;
29030;SDS011;16122;50.236;11.734;2022-08-03T07:56:12;3.00;;;2.80;;
29030;SDS011;16122;50.236;11.734;2022-08-03T07:58:38;3.07;;;2.87;;
29030;SDS011;16122;50.236;11.734;2022-08-03T08:01:04;3.37;;;3.07;;
29030;SDS011;16122;50.236;11.734;2022-08-03T08:03:31;3.10;;;2.90;;
29030;SDS011;16122;50.236;11.734;2022-08-03T08:05:57;2.87;;;2.63;;
29030;SDS011;16122;50.236;11.734;2022-08-03T08:08:23;3.00;;;2.80;;
29030;SDS011;16122;50.236;11.734;2022-08-03T08:10:48;5.23;;;2.60;;
29030;SDS011;16122;50.236;11.734;2022-08-03T08:13:14;3.40;;;3.20;;
29030;SDS011;16122;50.236;11.734;2022-08-03T08:15:40;3.30;;;3.00;;
29030;SDS011;16122;50.236;11.734;2022-08-03T08:18:06;3.03;;;2.70;;
29030;SDS011;16122;50.236;11.734;2022-08-03T08:20:33;2.90;;;2.70;;
29030;SDS011;16122;50.236;11.734;2022-08-03T08:23:03;3.40;;;2.87;;
29030;SDS011;16122;50.236;11.734;2022-08-03T08:25:30;3.47;;;3.20;;
29030;SDS011;16122;50.236;11.734;2022-08-03T08:27:57;2.83;;;2.63;;
29030;SDS011;16122;50.236;11.734;2022-08-03T08:30:27;2.63;;;2.43;;
29030;SDS011;16122;50.236;11.734;2022-08-03T08:32:53;3.07;;;2.87;;
29030;SDS011;16122;50.236;11.734;2022-08-03T08:35:19;3.50;;;2.93;;
29030;SDS011;16122;50.236;11.734;2022-08-03T08:37:45;2.90;;;2.70;;
29030;SDS011;16122;50.236;11.734;2022-08-03T08:40:12;2.70;;;2.50;;
29030;SDS011;16122;50.236;11.734;2022-08-03T08:42:38;3.13;;;2.93;;
29030;SDS011;16122;50.236;11.734;2022-08-03T08:45:05;3.10;;;2.13;;
29030;SDS011;16122;50.236;11.734;2022-08-03T08:47:34;3.30;;;3.10;;
29030;SDS011;16122;50.236;11.734;2022-08-03T08:50:05;2.63;;;2.43;;
29030;SDS011;16122;50.236;11.734;2022-08-03T08:52:35;2.40;;;2.20;;
29030;SDS011;16122;50.236;11.734;2022-08-03T08:55:05;3.40;;;3.10;;
29030;SDS011;16122;50.236;11.734;2022-08-03T08:57:34;2.70;;;2.30;;
29030;SDS011;16122;50.236;11.734;2022-08-03T09:00:06;3.40;;;3.10;;
29030;SDS011;16122;50.236;11.734;2022-08-03T09:02:43;2.70;;;2.50;;
29030;SDS011;16122;50.236;11.734;2022-08-03T09:05:14;2.97;;;2.77;;
29030;SDS011;16122;50.236;11.734;2022-08-03T09:07:43;2.90;;;2.70;;
29030;SDS011;16122;50.236;11.734;2022-08-03T09:10:10;2.70;;;2.33;;
29030;SDS011;16122;50.236;11.734;2022-08-03T09:12:38;2.67;;;2.47;;
29030;SDS011;16122;50.236;11.734;2022-08-03T09:15:23;2.43;;;2.23;;
29030;SDS011;16122;50.236;11.734;2022-08-03T09:17:57;3.67;;;2.33;;
29030;SDS011;16122;50.236;11.734;2022-08-03T09:20:29;3.13;;;2.93;;
29030;SDS011;16122;50.236;11.734;2022-08-03T09:22:58;2.80;;;2.60;;
29030;SDS011;16122;50.236;11.734;2022-08-03T09:28:11;4.50;;;2.40;;
29030;SDS011;16122;50.236;11.734;2022-08-03T09:30:39;2.87;;;2.63;;
29030;SDS011;16122;50.236;11.734;2022-08-03T09:33:07;3.30;;;3.10;;
29030;SDS011;16122;50.236;11.734;2022-08-03T09:35:47;3.27;;;2.57;;
29030;SDS011;16122;50.236;11.734;2022-08-03T09:38:16;2.83;;;2.63;;
29030;SDS011;16122;50.236;11.734;2022-08-03T09:40:44;2.60;;;2.37;;
29030;SDS011;16122;50.236;11.734;2022-08-03T09:43:10;2.60;;;2.47;;
29030;SDS011;16122;50.236;11.734;2022-08-03T09:45:37;4.73;;;3.20;;
29030;SDS011;16122;50.236;11.734;2022-08-03T09:48:26;2.83;;;2.53;;
29030;SDS011;16122;50.236;11.734;2022-08-03T09:50:54;2.50;;;2.30;;
29030;SDS011;16122;50.236;11.734;2022-08-03T09:53:21;6.17;;;2.40;;
29030;SDS011;16122;50.236;11.734;2022-08-03T09:58:25;2.30;;;2.20;;
29030;SDS011;16122;50.236;11.734;2022-08-03T10:03:21;2.80;;;2.60;;
29030;SDS011;16122;50.236;11.734;2022-08-03T10:05:47;2.50;;;2.37;;
29030;SDS011;16122;50.236;11.734;2022-08-03T10:08:14;3.20;;;2.60;;
29030;SDS011;16122;50.236;11.734;2022-08-03T10:10:41;3.47;;;2.77;;
29030;SDS011;16122;50.236;11.734;2022-08-03T10:13:17;3.83;;;2.93;;
29030;SDS011;16122;50.236;11.734;2022-08-03T10:15:44;4.07;;;3.00;;
29030;SDS011;16122;50.236;11.734;2022-08-03T10:18:10;4.97;;;3.10;;
29030;SDS011;16122;50.236;11.734;2022-08-03T10:20:40;4.53;;;3.13;;
29030;SDS011;16122;50.236;11.734;2022-08-03T10:23:10;3.80;;;3.07;;
29030;SDS011;16122;50.236;11.734;2022-08-03T10:25:38;5.20;;;2.93;;
29030;SDS011;16122;50.236;11.734;2022-08-03T10:28:05;7.20;;;3.67;;
29030;SDS011;16122;50.236;11.734;2022-08-03T10:30:35;6.47;;;3.97;;
29030;SDS011;16122;50.236;11.734;2022-08-03T10:33:06;6.00;;;3.63;;
29030;SDS011;16122;50.236;11.734;2022-08-03T10:35:39;5.47;;;3.50;;
29030;SDS011;16122;50.236;11.734;2022-08-03T10:38:07;6.50;;;3.20;;
29030;SDS011;16122;50.236;11.734;2022-08-03T10:40:36;5.30;;;4.07;;
29030;SDS011;16122;50.236;11.734;2022-08-03T10:46:05;3.93;;;3.30;;
29030;SDS011;16122;50.236;11.734;2022-08-03T10:48:32;5.87;;;3.60;;
29030;SDS011;16122;50.236;11.734;2022-08-03T10:51:00;4.90;;;3.13;;
29030;SDS011;16122;50.236;11.734;2022-08-03T10:53:33;10.47;;;3.13;;
29030;SDS011;16122;50.236;11.734;2022-08-03T10:56:04;5.17;;;3.37;;
29030;SDS011;16122;50.236;11.734;2022-08-03T10:58:50;5.57;;;3.23;;
29030;SDS011;16122;50.236;11.734;2022-08-03T11:01:17;3.87;;;3.07;;
29030;SDS011;16122;50.236;11.734;2022-08-03T11:06:28;5.00;;;3.47;;
29030;SDS011;16122;50.236;11.734;2022-08-03T11:11:38;3.93;;;2.80;;
29030;SDS011;16122;50.236;11.734;2022-08-03T11:14:07;3.37;;;2.70;;
29030;SDS011;16122;50.236;11.734;2022-08-03T11:16:48;4.80;;;3.00;;
29030;SDS011;16122;50.236;11.734;2022-08-03T11:19:43;3.23;;;2.70;;
29030;SDS011;16122;50.236;11.734;2022-08-03T11:22:14;5.03;;;2.77;;
29030;SDS011;16122;50.236;11.734;2022-08-03T11:37:35;4.00;;;3.00;;
29030;SDS011;16122;50.236;11.734;2022-08-03T11:43:52;3.30;;;2.53;;
29030;SDS011;16122;50.236;11.734;2022-08-03T11:48:44;3.33;;;3.03;;
29030;SDS011;16122;50.236;11.734;2022-08-03T11:51:24;3.23;;;2.90;;
29030;SDS011;16122;50.236;11.734;2022-08-03T11:56:22;2.50;;;2.30;;
29030;SDS011;16122;50.236;11.734;2022-08-03T11:58:49;2.73;;;2.50;;
29030;SDS011;16122;50.236;11.734;2022-08-03T12:01:18;2.73;;;2.53;;
29030;SDS011;16122;50.236;11.734;2022-08-03T12:03:45;2.57;;;2.43;;
29030;SDS011;16122;50.236;11.734;2022-08-03T12:06:12;2.70;;;2.50;;
29030;SDS011;16122;50.236;11.734;2022-08-03T12:08:40;2.47;;;2.27;;
29030;SDS011;16122;50.236;11.734;2022-08-03T12:11:08;2.60;;;2.33;;
29030;SDS011;16122;50.236;11.734;2022-08-03T12:13:39;2.50;;;2.30;;
29030;SDS011;16122;50.236;11.734;2022-08-03T12:16:07;2.80;;;2.60;;
29030;SDS011;16122;50.236;11.734;2022-08-03T12:18:33;3.63;;;2.63;;
29030;SDS011;16122;50.236;11.734;2022-08-03T12:21:04;2.60;;;2.40;;
29030;SDS011;16122;50.236;11.734;2022-08-03T12:23:32;2.67;;;2.47;;
29030;SDS011;16122;50.236;11.734;2022-08-03T12:26:06;2.90;;;2.60;;
29030;SDS011;16122;50.236;11.734;2022-08-03T12:28:34;2.80;;;2.60;;
29030;SDS011;16122;50.236;11.734;2022-08-03T12:31:01;2.87;;;2.47;;
29030;SDS011;16122;50.236;11.734;2022-08-03T12:33:30;2.87;;;2.67;;
29030;SDS011;16122;50.236;11.734;2022-08-03T12:36:06;2.70;;;2.50;;
29030;SDS011;16122;50.236;11.734;2022-08-03T12:38:34;2.80;;;2.50;;
29030;SDS011;16122;50.236;11.734;2022-08-03T12:41:03;2.70;;;2.50;;
29030;SDS011;16122;50.236;11.734;2022-08-03T12:43:45;3.43;;;2.80;;
29030;SDS011;16122;50.236;11.734;2022-08-03T12:46:16;2.57;;;2.37;;
29030;SDS011;16122;50.236;11.734;2022-08-03T12:48:59;3.03;;;2.73;;
29030;SDS011;16122;50.236;11.734;2022-08-03T12:51:34;2.90;;;2.70;;
29030;SDS011;16122;50.236;11.734;2022-08-03T12:54:07;2.50;;;2.30;;
29030;SDS011;16122;50.236;11.734;2022-08-03T12:56:34;2.80;;;2.57;;
29030;SDS011;16122;50.236;11.734;2022-08-03T12:59:23;3.03;;;2.43;;
29030;SDS011;16122;50.236;11.734;2022-08-03T13:01:50;2.33;;;2.13;;
29030;SDS011;16122;50.236;11.734;2022-08-03T13:04:26;2.40;;;2.27;;
29030;SDS011;16122;50.236;11.734;2022-08-03T13:07:03;2.70;;;2.37;;
29030;SDS011;16122;50.236;11.734;2022-08-03T13:12:20;3.57;;;2.53;;
29030;SDS011;16122;50.236;11.734;2022-08-03T13:14:51;3.47;;;2.33;;
29030;SDS011;16122;50.236;11.734;2022-08-03T13:17:19;2.77;;;2.57;;
29030;SDS011;16122;50.236;11.734;2022-08-03T13:19:46;2.63;;;2.43;;
29030;SDS011;16122;50.236;11.734;2022-08-03T13:24:41;4.33;;;2.60;;
29030;SDS011;16122;50.236;11.734;2022-08-03T13:27:08;3.00;;;2.63;;
29030;SDS011;16122;50.236;11.734;2022-08-03T13:29:35;3.00;;;2.20;;
29030;SDS011;16122;50.236;11.734;2022-08-03T13:32:01;3.30;;;3.00;;
29030;SDS011;16122;50.236;11.734;2022-08-03T13:34:28;2.63;;;2.53;;
29030;SDS011;16122;50.236;11.734;2022-08-03T13:36:54;3.53;;;2.43;;
29030;SDS011;16122;50.236;11.734;2022-08-03T13:39:19;2.37;;;2.17;;
29030;SDS011;16122;50.236;11.734;2022-08-03T13:41:45;2.33;;;2.23;;
29030;SDS011;16122;50.236;11.734;2022-08-03T13:44:11;3.10;;;2.80;;
29030;SDS011;16122;50.236;11.734;2022-08-03T13:46:37;3.53;;;3.23;;
29030;SDS011;16122;50.236;11.734;2022-08-03T13:49:04;2.90;;;2.70;;
29030;SDS011;16122;50.236;11.734;2022-08-03T13:51:31;4.97;;;3.30;;
29030;SDS011;16122;50.236;11.734;2022-08-03T13:53:57;2.83;;;2.50;;
29030;SDS011;16122;50.236;11.734;2022-08-03T13:56:26;2.53;;;2.30;;
29030;SDS011;16122;50.236;11.734;2022-08-03T13:58:53;2.30;;;2.10;;
29030;SDS011;16122;50.236;11.734;2022-08-03T14:01:19;2.50;;;2.30;;
29030;SDS011;16122;50.236;11.734;2022-08-03T14:03:45;2.50;;;2.33;;
29030;SDS011;16122;50.236;11.734;2022-08-03T14:06:18;2.67;;;2.47;;
29030;SDS011;16122;50.236;11.734;2022-08-03T14:08:48;2.73;;;2.53;;
29030;SDS011;16122;50.236;11.734;2022-08-03T14:11:14;2.27;;;2.10;;
29030;SDS011;16122;50.236;11.734;2022-08-03T14:13:41;2.60;;;2.40;;
29030;SDS011;16122;50.236;11.734;2022-08-03T14:16:06;2.37;;;2.13;;
29030;SDS011;16122;50.236;11.734;2022-08-03T14:18:33;3.47;;;3.00;;
29030;SDS011;16122;50.236;11.734;2022-08-03T14:20:59;2.83;;;2.63;;
29030;SDS011;16122;50.236;11.734;2022-08-03T14:23:26;2.60;;;2.40;;
29030;SDS011;16122;50.236;11.734;2022-08-03T14:25:52;2.40;;;2.10;;
29030;SDS011;16122;50.236;11.734;2022-08-03T14:28:21;2.60;;;2.40;;
29030;SDS011;16122;50.236;11.734;2022-08-03T14:30:49;3.53;;;2.70;;
29030;SDS011;16122;50.236;11.734;2022-08-03T14:33:15;2.67;;;2.47;;
29030;SDS011;16122;50.236;11.734;2022-08-03T14:35:42;3.40;;;2.57;;
29030;SDS011;16122;50.236;11.734;2022-08-03T14:38:08;5.23;;;2.97;;
29030;SDS011;16122;50.236;11.734;2022-08-03T14:40:33;3.30;;;2.50;;
29030;SDS011;16122;50.236;11.734;2022-08-03T14:42:59;2.90;;;2.70;;
29030;SDS011;16122;50.236;11.734;2022-08-03T14:45:26;3.20;;;2.90;;
29030;SDS011;16122;50.236;11.734;2022-08-03T14:47:52;3.97;;;2.60;;
29030;SDS011;16122;50.236;11.734;2022-08-03T14:50:18;4.27;;;2.70;;
29030;SDS011;16122;50.236;11.734;2022-08-03T14:52:44;3.17;;;2.40;;
29030;SDS011;16122;50.236;11.734;2022-08-03T14:55:10;2.60;;;2.40;;
29030;SDS011;16122;50.236;11.734;2022-08-03T14:57:36;2.77;;;2.20;;
29030;SDS011;16122;50.236;11.734;2022-08-03T15:00:02;7.50;;;2.73;;
29030;SDS011;16122;50.236;11.734;2022-08-03T15:02:29;3.40;;;3.13;;
29030;SDS011;16122;50.236;11.734;2022-08-03T15:04:55;3.37;;;2.73;;
29030;SDS011;16122;50.236;11.734;2022-08-03T15:07:21;2.57;;;2.37;;
29030;SDS011;16122;50.236;11.734;2022-08-03T15:09:47;3.93;;;2.70;;
29030;SDS011;16122;50.236;11.734;2022-08-03T15:12:12;4.23;;;2.77;;
29030;SDS011;16122;50.236;11.734;2022-08-03T15:14:39;4.97;;;2.67;;
29030;SDS011;16122;50.236;11.734;2022-08-03T15:17:05;2.50;;;2.20;;
29030;SDS011;16122;50.236;11.734;2022-08-03T15:19:31;2.80;;;2.60;;
29030;SDS011;16122;50.236;11.734;2022-08-03T15:21:57;3.03;;;2.60;;
29030;SDS011;16122;50.236;11.734;2022-08-03T15:24:23;5.90;;;2.40;;
29030;SDS011;16122;50.236;11.734;2022-08-03T15:26:50;5.40;;;3.00;;
29030;SDS011;16122;50.236;11.734;2022-08-03T15:29:16;2.40;;;2.20;;
29030;SDS011;16122;50.236;11.734;2022-08-03T15:31:42;3.23;;;2.70;;
29030;SDS011;16122;50.236;11.734;2022-08-03T15:34:08;3.00;;;2.80;;